createdAt,value
2023-03-06T00:01:10.050Z,7.08
2023-03-06T00:03:37.393Z,7.17
2023-03-06T00:06:05.145Z,6.86
2023-03-06T00:08:32.381Z,6.72
2023-03-06T00:11:00.802Z,7.36
2023-03-06T00:13:30.707Z,7.08
2023-03-06T00:16:04.865Z,7.20
2023-03-06T00:18:32.081Z,6.96
2023-03-06T00:21:00.001Z,6.86
2023-03-06T00:23:27.624Z,6.91
2023-03-06T00:25:54.816Z,6.85
2023-03-06T00:28:22.111Z,6.99
2023-03-06T00:30:49.429Z,6.90
2023-03-06T00:33:16.772Z,6.96
2023-03-06T00:35:44.042Z,7.32
2023-03-06T00:38:13.626Z,7.32
2023-03-06T00:40:41.018Z,7.12
2023-03-06T00:43:08.206Z,7.07
2023-03-06T00:45:36.261Z,6.97
2023-03-06T00:48:04.345Z,6.98
2023-03-06T00:50:31.818Z,6.98
2023-03-06T00:53:00.469Z,6.83
2023-03-06T00:55:29.381Z,6.79
2023-03-06T00:57:56.721Z,6.62
2023-03-06T01:00:24.082Z,6.56
2023-03-06T01:02:53.600Z,6.80
2023-03-06T01:05:22.608Z,6.75
2023-03-06T01:07:49.818Z,6.62
2023-03-06T01:10:17.369Z,6.75
2023-03-06T01:12:45.623Z,6.47
2023-03-06T01:15:14.362Z,6.52
2023-03-06T01:17:41.487Z,6.80
2023-03-06T01:20:16.203Z,6.65
2023-03-06T01:22:43.794Z,6.69
2023-03-06T01:25:11.886Z,6.67
2023-03-06T01:27:39.377Z,6.55
2023-03-06T01:30:07.882Z,6.31
2023-03-06T01:32:35.101Z,6.54
2023-03-06T01:35:03.777Z,6.67
2023-03-06T01:37:31.156Z,6.85
2023-03-06T01:39:58.381Z,6.50
2023-03-06T01:42:25.797Z,6.61
2023-03-06T01:45:27.742Z,6.57
2023-03-06T01:47:55.255Z,6.35
2023-03-06T01:50:22.756Z,6.53
2023-03-06T01:52:58.560Z,6.49
2023-03-06T01:55:35.298Z,6.55
2023-03-06T01:58:11.523Z,6.65
2023-03-06T02:00:39.082Z,6.76
2023-03-06T02:03:14.681Z,6.68
2023-03-06T02:05:44.154Z,6.88
2023-03-06T02:08:17.660Z,7.10
2023-03-06T02:11:13.291Z,6.85
2023-03-06T02:13:43.059Z,6.92
2023-03-06T02:16:11.718Z,6.94
2023-03-06T02:18:42.466Z,6.98
2023-03-06T02:21:21.845Z,6.94
2023-03-06T02:24:49.565Z,6.84
2023-03-06T02:27:19.275Z,6.82
2023-03-06T02:29:46.883Z,6.75
2023-03-06T02:32:15.240Z,6.82
2023-03-06T02:34:58.397Z,6.92
2023-03-06T02:37:28.876Z,7.07
2023-03-06T02:40:09.883Z,6.90
2023-03-06T02:42:37.421Z,7.06
2023-03-06T02:45:13.156Z,6.96
2023-03-06T02:47:41.282Z,7.03
2023-03-06T02:50:10.453Z,6.65
2023-03-06T02:52:38.046Z,6.50
2023-03-06T02:55:06.347Z,6.34
2023-03-06T02:57:33.902Z,6.44
2023-03-06T03:00:01.386Z,6.52
2023-03-06T03:02:30.025Z,6.13
2023-03-06T03:04:59.117Z,6.32
2023-03-06T03:07:26.652Z,6.00
2023-03-06T03:09:54.229Z,6.30
2023-03-06T03:12:22.457Z,6.46
2023-03-06T03:14:50.171Z,6.46
2023-03-06T03:17:17.665Z,6.50
2023-03-06T03:19:46.839Z,6.63
2023-03-06T03:22:14.754Z,6.54
2023-03-06T03:24:42.446Z,6.61
2023-03-06T03:27:11.263Z,6.60
2023-03-06T03:29:39.028Z,6.77
2023-03-06T03:32:07.768Z,6.81
2023-03-06T03:34:36.555Z,7.03
2023-03-06T03:37:05.117Z,6.71
2023-03-06T03:39:32.674Z,6.67
2023-03-06T03:42:00.024Z,6.73
2023-03-06T03:44:28.419Z,6.70
2023-03-06T03:46:56.586Z,6.60
2023-03-06T03:49:25.108Z,6.60
2023-03-06T03:51:53.349Z,6.59
2023-03-06T03:54:27.577Z,6.56
2023-03-06T03:56:55.194Z,6.52
2023-03-06T03:59:27.033Z,6.49
2023-03-06T04:02:24.046Z,6.74
2023-03-06T04:05:16.978Z,6.96
2023-03-06T04:07:44.720Z,6.59
2023-03-06T04:10:13.580Z,6.10
2023-03-06T04:12:41.334Z,6.23
2023-03-06T04:15:11.536Z,6.55
2023-03-06T04:17:39.920Z,6.63
2023-03-06T04:20:11.987Z,6.44
2023-03-06T04:22:39.372Z,6.08
2023-03-06T04:25:07.499Z,6.07
2023-03-06T04:27:35.827Z,5.98
2023-03-06T04:30:05.842Z,6.21
2023-03-06T04:32:34.838Z,6.24
2023-03-06T04:35:02.872Z,5.89
2023-03-06T04:37:35.728Z,5.83
2023-03-06T04:40:04.275Z,5.80
2023-03-06T04:42:31.539Z,5.53
2023-03-06T04:44:58.848Z,5.87
2023-03-06T04:47:26.326Z,6.14
2023-03-06T04:49:54.106Z,6.18
2023-03-06T04:52:21.310Z,6.01
2023-03-06T04:54:48.695Z,5.75
2023-03-06T04:57:16.335Z,5.81
2023-03-06T04:59:43.533Z,5.96
2023-03-06T05:02:10.717Z,6.15
2023-03-06T05:04:37.837Z,6.26
2023-03-06T05:07:05.260Z,6.49
2023-03-06T05:09:35.135Z,6.54
2023-03-06T05:12:03.525Z,6.45
2023-03-06T05:14:31.523Z,6.74
2023-03-06T05:16:58.797Z,6.74
2023-03-06T05:19:26.137Z,6.17
2023-03-06T05:21:53.304Z,5.92
2023-03-06T05:24:20.433Z,5.97
2023-03-06T05:26:47.648Z,6.25
2023-03-06T05:29:14.889Z,6.21
2023-03-06T05:31:42.181Z,6.15
2023-03-06T05:34:16.258Z,5.72
2023-03-06T05:36:44.109Z,5.95
2023-03-06T05:39:11.323Z,5.65
2023-03-06T05:41:38.679Z,5.78
2023-03-06T05:44:33.261Z,5.60
2023-03-06T05:47:01.915Z,5.40
2023-03-06T05:49:35.082Z,5.60
2023-03-06T05:52:05.227Z,5.55
2023-03-06T05:54:35.456Z,5.75
2023-03-06T05:57:11.712Z,5.83
2023-03-06T05:59:39.100Z,5.61
2023-03-06T06:02:06.416Z,5.63
2023-03-06T06:04:34.054Z,5.81
2023-03-06T06:07:02.471Z,5.64
2023-03-06T06:09:30.246Z,5.60
2023-03-06T06:12:02.123Z,5.83
2023-03-06T06:14:32.853Z,6.03
2023-03-06T06:17:00.892Z,6.20
2023-03-06T06:19:32.201Z,6.21
2023-03-06T06:21:59.402Z,6.43
2023-03-06T06:24:27.227Z,6.59
2023-03-06T06:26:57.583Z,6.51
2023-03-06T06:29:26.996Z,6.26
2023-03-06T06:31:55.821Z,6.30
2023-03-06T06:34:24.292Z,5.84
2023-03-06T06:36:54.337Z,5.90
2023-03-06T06:39:23.829Z,6.37
2023-03-06T06:42:05.959Z,6.12
2023-03-06T06:44:40.101Z,5.57
2023-03-06T06:47:25.112Z,5.79
2023-03-06T06:49:55.777Z,6.24
2023-03-06T06:52:25.214Z,6.44
2023-03-06T06:54:53.421Z,5.76
2023-03-06T06:57:20.882Z,6.00
2023-03-06T06:59:48.044Z,5.89
2023-03-06T07:02:16.570Z,6.00
2023-03-06T07:05:01.979Z,6.22
2023-03-06T07:07:32.954Z,6.24
2023-03-06T07:10:00.207Z,6.29
2023-03-06T07:12:27.518Z,7.12
2023-03-06T07:14:54.673Z,7.40
2023-03-06T07:17:21.863Z,7.15
2023-03-06T07:19:49.075Z,7.16
2023-03-06T07:22:16.461Z,7.15
2023-03-06T07:24:43.619Z,7.12
2023-03-06T07:27:10.824Z,7.00
2023-03-06T07:29:38.355Z,7.08
2023-03-06T07:32:05.860Z,7.31
2023-03-06T07:34:33.214Z,7.39
2023-03-06T07:37:00.557Z,7.31
2023-03-06T07:39:30.107Z,7.24
2023-03-06T07:41:58.586Z,7.56
2023-03-06T07:44:26.670Z,7.88
2023-03-06T07:46:53.969Z,7.69
2023-03-06T07:49:21.396Z,7.64
2023-03-06T07:51:48.768Z,7.05
2023-03-06T07:54:16.184Z,7.17
2023-03-06T07:56:43.552Z,7.49
2023-03-06T07:59:12.019Z,7.38
2023-03-06T08:01:40.220Z,7.56
2023-03-06T08:04:08.286Z,7.33
2023-03-06T08:06:35.785Z,7.46
2023-03-06T08:09:04.673Z,7.57
2023-03-06T08:11:33.258Z,7.20
2023-03-06T08:14:01.286Z,7.71
2023-03-06T08:16:31.774Z,8.12
2023-03-06T08:18:59.215Z,8.40
2023-03-06T08:21:28.169Z,8.74
2023-03-06T08:23:56.154Z,8.88
2023-03-06T08:26:28.645Z,9.10
2023-03-06T08:29:00.576Z,9.20
2023-03-06T08:31:34.548Z,9.16
2023-03-06T08:34:06.931Z,9.73
2023-03-06T08:36:34.666Z,9.75
2023-03-06T08:39:02.972Z,10.41
2023-03-06T08:41:30.959Z,10.44
2023-03-06T08:43:58.272Z,10.40
2023-03-06T08:46:28.987Z,10.13
2023-03-06T08:48:57.140Z,10.50
2023-03-06T08:51:25.719Z,10.97
2023-03-06T08:53:53.223Z,11.02
2023-03-06T08:56:29.433Z,11.38
2023-03-06T08:59:00.031Z,11.51
2023-03-06T09:01:35.165Z,11.45
2023-03-06T09:04:11.470Z,11.92
2023-03-06T09:06:44.138Z,12.51
2023-03-06T09:09:12.785Z,13.12
2023-03-06T09:11:40.365Z,13.43
2023-03-06T09:14:07.557Z,13.89
2023-03-06T09:16:35.029Z,14.51
2023-03-06T09:19:02.585Z,14.82
2023-03-06T09:21:29.916Z,14.95
2023-03-06T09:23:57.309Z,14.50
2023-03-06T09:26:32.806Z,13.85
2023-03-06T09:29:07.868Z,13.22
2023-03-06T09:31:35.193Z,12.76
2023-03-06T09:34:02.349Z,13.23
2023-03-06T09:36:29.700Z,13.31
2023-03-06T09:38:57.094Z,12.99
2023-03-06T09:41:38.406Z,12.57
2023-03-06T09:44:17.913Z,12.13
2023-03-06T09:47:00.590Z,12.27
2023-03-06T09:50:14.284Z,12.05
2023-03-06T09:52:41.372Z,12.44
2023-03-06T09:55:24.992Z,12.63
2023-03-06T09:58:18.558Z,12.24
2023-03-06T10:01:11.700Z,11.95
2023-03-06T10:04:22.226Z,11.84
2023-03-06T10:07:00.867Z,12.02
2023-03-06T10:09:51.254Z,11.93
2023-03-06T10:12:28.755Z,11.80
2023-03-06T10:15:18.738Z,11.86
2023-03-06T10:17:46.756Z,11.67
2023-03-06T10:20:28.603Z,11.79
2023-03-06T10:23:45.167Z,11.95
2023-03-06T10:26:33.800Z,11.98
2023-03-06T10:29:47.641Z,12.46
2023-03-06T10:32:48.789Z,12.22
2023-03-06T10:35:30.819Z,12.60
2023-03-06T10:38:23.896Z,12.49
2023-03-06T10:41:12.094Z,12.36
2023-03-06T10:43:44.332Z,11.91
2023-03-06T10:46:27.753Z,11.34
2023-03-06T10:49:07.384Z,11.73
2023-03-06T10:51:35.547Z,11.88
2023-03-06T10:54:19.989Z,12.09
2023-03-06T10:56:48.075Z,12.38
2023-03-06T10:59:28.486Z,11.94
2023-03-06T11:01:59.158Z,11.84
2023-03-06T11:04:51.661Z,11.77
2023-03-06T11:07:32.440Z,11.64
2023-03-06T11:10:19.519Z,11.76
2023-03-06T11:13:23.250Z,11.28
2023-03-06T11:16:06.207Z,11.62
2023-03-06T11:18:40.253Z,11.86
2023-03-06T11:21:33.957Z,11.95
2023-03-06T11:24:19.019Z,12.04
2023-03-06T11:27:00.202Z,12.38
2023-03-06T11:29:42.412Z,11.58
2023-03-06T11:32:55.983Z,11.97
2023-03-06T11:35:35.246Z,11.91
2023-03-06T11:38:20.292Z,11.82
2023-03-06T11:40:59.814Z,12.18
2023-03-06T11:44:00.728Z,12.02
2023-03-06T11:46:44.462Z,12.69
2023-03-06T11:49:35.013Z,12.52
2023-03-06T11:52:15.073Z,13.33
2023-03-06T11:54:42.267Z,14.04
2023-03-06T11:57:27.265Z,14.29
2023-03-06T12:00:44.215Z,14.56
2023-03-06T12:03:53.836Z,14.21
2023-03-06T12:07:09.217Z,14.02
2023-03-06T12:12:51.633Z,14.59
2023-03-06T12:15:47.099Z,14.75
2023-03-06T12:19:09.580Z,15.26
2023-03-06T12:22:27.362Z,15.56
2023-03-06T12:25:17.256Z,15.97
2023-03-06T12:28:13.150Z,15.58
2023-03-06T12:31:36.798Z,15.28
2023-03-06T12:34:50.254Z,15.45
2023-03-06T12:37:50.894Z,14.55
2023-03-06T12:40:38.074Z,15.04
2023-03-06T12:43:32.369Z,14.61
2023-03-06T12:46:21.947Z,14.09
2023-03-06T12:49:32.915Z,14.20
2023-03-06T12:52:02.169Z,13.90
2023-03-06T12:54:36.620Z,14.02
2023-03-06T12:57:07.864Z,14.16
2023-03-06T12:59:47.887Z,13.72
2023-03-06T13:02:36.219Z,12.87
2023-03-06T13:05:34.393Z,13.00
2023-03-06T13:08:44.181Z,12.23
2023-03-06T13:11:48.581Z,12.28
2023-03-06T13:14:48.793Z,12.38
2023-03-06T13:17:39.468Z,12.92
2023-03-06T13:20:16.294Z,12.85
2023-03-06T13:22:47.148Z,13.34
2023-03-06T13:25:17.324Z,13.70
2023-03-06T13:28:04.419Z,13.32
2023-03-06T13:30:46.994Z,13.19
2023-03-06T13:33:36.730Z,12.68
2023-03-06T13:36:42.797Z,12.97
2023-03-06T13:39:13.100Z,12.92
2023-03-06T13:41:59.588Z,12.85
2023-03-06T13:44:26.788Z,12.45
2023-03-06T13:47:21.585Z,12.63
2023-03-06T13:49:49.273Z,12.06
2023-03-06T13:53:05.265Z,11.80
2023-03-06T13:56:04.240Z,12.07
2023-03-06T13:59:13.178Z,11.95
2023-03-06T14:01:53.057Z,11.91
2023-03-06T14:04:43.769Z,11.88
2023-03-06T14:07:23.427Z,12.17
2023-03-06T14:10:15.055Z,11.84
2023-03-06T14:12:51.318Z,12.09
2023-03-06T14:15:25.156Z,11.79
2023-03-06T14:18:05.532Z,11.84
2023-03-06T14:20:39.058Z,11.60
2023-03-06T14:23:24.461Z,11.49
2023-03-06T14:26:20.388Z,11.29
2023-03-06T14:28:53.577Z,11.59
2023-03-06T14:31:27.109Z,11.58
2023-03-06T14:34:06.708Z,11.59
2023-03-06T14:36:45.774Z,11.36
2023-03-06T14:39:42.349Z,11.52
2023-03-06T14:42:29.274Z,11.47
2023-03-06T14:45:05.657Z,11.66
2023-03-06T14:47:37.402Z,11.69
2023-03-06T14:50:30.098Z,11.60
2023-03-06T14:53:23.194Z,11.50
2023-03-06T14:56:00.450Z,11.49
2023-03-06T14:58:48.530Z,11.56
2023-03-06T15:01:17.448Z,11.59
2023-03-06T15:03:53.017Z,11.11
2023-03-06T15:06:33.298Z,10.97
2023-03-06T15:09:20.606Z,10.88
2023-03-06T15:12:08.752Z,11.20
2023-03-06T15:14:48.665Z,11.28
2023-03-06T15:17:18.988Z,11.06
2023-03-06T15:19:59.338Z,11.18
2023-03-06T15:22:42.446Z,11.04
2023-03-06T15:25:18.822Z,10.63
2023-03-06T15:27:50.882Z,10.65
2023-03-06T15:30:37.601Z,10.34
2023-03-06T15:33:19.512Z,10.37
2023-03-06T15:36:02.233Z,10.15
2023-03-06T15:38:36.479Z,10.45
2023-03-06T15:41:06.894Z,10.26
2023-03-06T15:43:40.114Z,10.16
2023-03-06T15:46:08.127Z,10.28
2023-03-06T15:48:35.719Z,9.74
2023-03-06T15:51:04.672Z,9.51
2023-03-06T15:53:32.188Z,9.28
2023-03-06T15:55:59.901Z,9.69
2023-03-06T15:58:33.626Z,9.32
2023-03-06T16:01:00.920Z,9.46
2023-03-06T16:03:28.083Z,9.37
2023-03-06T16:05:55.430Z,9.43
2023-03-06T16:08:22.703Z,9.17
2023-03-06T16:10:52.469Z,9.26
2023-03-06T16:13:28.826Z,9.08
2023-03-06T16:15:56.638Z,9.07
2023-03-06T16:18:23.968Z,9.23
2023-03-06T16:20:51.246Z,9.47
2023-03-06T16:23:18.377Z,9.54
2023-03-06T16:25:49.374Z,9.38
2023-03-06T16:28:17.086Z,9.38
2023-03-06T16:30:45.442Z,8.88
2023-03-06T16:33:16.869Z,8.58
2023-03-06T16:35:46.505Z,8.80
2023-03-06T16:38:15.769Z,8.82
2023-03-06T16:40:43.441Z,8.91
2023-03-06T16:43:10.909Z,8.86
2023-03-06T16:45:41.687Z,8.98
2023-03-06T16:48:15.816Z,9.13
2023-03-06T16:50:43.537Z,9.00
2023-03-06T16:53:10.744Z,9.05
2023-03-06T16:55:38.161Z,9.12
2023-03-06T16:58:05.703Z,9.24
2023-03-06T17:00:33.397Z,9.05
2023-03-06T17:03:02.603Z,8.99
2023-03-06T17:05:33.952Z,9.00
2023-03-06T17:08:02.424Z,9.13
2023-03-06T17:10:30.113Z,8.79
2023-03-06T17:12:57.761Z,8.77
2023-03-06T17:15:26.098Z,9.03
2023-03-06T17:17:53.556Z,8.85
2023-03-06T17:20:21.033Z,8.73
2023-03-06T17:22:48.437Z,8.75
2023-03-06T17:25:16.019Z,8.82
2023-03-06T17:27:43.529Z,8.63
2023-03-06T17:30:12.174Z,8.18
2023-03-06T17:32:41.080Z,8.18
2023-03-06T17:35:10.103Z,8.49
2023-03-06T17:37:37.793Z,8.18
2023-03-06T17:40:10.046Z,8.33
2023-03-06T17:42:37.264Z,8.41
2023-03-06T17:45:09.048Z,8.46
2023-03-06T17:47:36.406Z,8.21
2023-03-06T17:50:04.449Z,8.48
2023-03-06T17:52:32.076Z,8.12
2023-03-06T17:54:59.393Z,8.25
2023-03-06T17:57:26.762Z,8.42
2023-03-06T17:59:54.038Z,8.23
2023-03-06T18:02:21.533Z,8.24
2023-03-06T18:04:49.319Z,8.39
2023-03-06T18:07:16.776Z,8.29
2023-03-06T18:09:44.306Z,8.25
2023-03-06T18:12:11.801Z,8.29
2023-03-06T18:14:39.214Z,8.39
2023-03-06T18:17:06.559Z,8.12
2023-03-06T18:19:34.004Z,8.30
2023-03-06T18:22:01.466Z,8.31
2023-03-06T18:24:28.928Z,8.45
2023-03-06T18:26:56.924Z,8.52
2023-03-06T18:29:24.364Z,8.47
2023-03-06T18:31:51.735Z,8.51
2023-03-06T18:34:19.229Z,8.54
2023-03-06T18:36:51.677Z,8.47
2023-03-06T18:39:21.462Z,8.38
2023-03-06T18:41:48.835Z,8.19
2023-03-06T18:44:21.983Z,8.19
2023-03-06T18:46:49.218Z,8.40
2023-03-06T18:49:16.665Z,8.18
2023-03-06T18:51:44.065Z,8.14
2023-03-06T18:54:12.043Z,8.44
2023-03-06T18:56:43.962Z,8.44
2023-03-06T18:59:18.525Z,8.39
2023-03-06T19:01:47.821Z,8.42
2023-03-06T19:04:15.375Z,8.42
2023-03-06T19:06:42.790Z,8.39
2023-03-06T19:09:11.465Z,8.35
2023-03-06T19:11:39.000Z,8.53
2023-03-06T19:14:06.743Z,8.03
2023-03-06T19:16:34.966Z,8.05
2023-03-06T19:19:02.523Z,8.23
2023-03-06T19:21:32.472Z,7.82
2023-03-06T19:23:59.805Z,7.95
2023-03-06T19:26:28.342Z,8.08
2023-03-06T19:28:55.860Z,8.18
2023-03-06T19:31:27.738Z,8.19
2023-03-06T19:33:56.950Z,8.01
2023-03-06T19:36:33.486Z,8.16
2023-03-06T19:39:05.692Z,8.21
2023-03-06T19:41:33.737Z,8.19
2023-03-06T19:44:03.207Z,8.24
2023-03-06T19:46:31.748Z,8.20
2023-03-06T19:49:02.367Z,8.27
2023-03-06T19:51:30.563Z,7.97
2023-03-06T19:53:58.267Z,8.10
2023-03-06T19:56:30.248Z,8.17
2023-03-06T19:58:57.848Z,8.27
2023-03-06T20:01:27.763Z,8.17
2023-03-06T20:03:59.661Z,8.18
2023-03-06T20:06:33.612Z,8.04
2023-03-06T20:09:05.508Z,7.98
2023-03-06T20:11:33.003Z,7.94
2023-03-06T20:14:04.753Z,7.88
2023-03-06T20:16:33.593Z,7.99
2023-03-06T20:19:02.696Z,8.12
2023-03-06T20:21:37.438Z,7.97
2023-03-06T20:24:16.474Z,7.83
2023-03-06T20:26:47.594Z,7.98
2023-03-06T20:29:15.494Z,7.92
2023-03-06T20:31:46.189Z,7.76
2023-03-06T20:34:14.572Z,7.82
2023-03-06T20:36:41.785Z,7.74
2023-03-06T20:39:15.614Z,7.90
2023-03-06T20:41:44.438Z,7.74
2023-03-06T20:44:23.271Z,7.78
2023-03-06T20:46:52.296Z,7.71
2023-03-06T20:49:27.334Z,7.76
2023-03-06T20:51:56.005Z,7.87
2023-03-06T20:54:23.398Z,7.77
2023-03-06T20:56:51.626Z,7.85
2023-03-06T20:59:19.386Z,8.35
2023-03-06T21:01:48.022Z,8.21
2023-03-06T21:04:16.416Z,8.14
2023-03-06T21:06:46.847Z,8.11
2023-03-06T21:09:16.839Z,7.95
2023-03-06T21:11:44.442Z,7.93
2023-03-06T21:14:13.766Z,7.80
2023-03-06T21:16:42.195Z,7.64
2023-03-06T21:19:11.199Z,7.65
2023-03-06T21:21:38.515Z,7.66
2023-03-06T21:24:06.088Z,7.95
2023-03-06T21:26:34.120Z,7.97
2023-03-06T21:29:02.516Z,7.89
2023-03-06T21:31:31.580Z,8.30
2023-03-06T21:33:59.472Z,7.88
2023-03-06T21:36:28.108Z,7.92
2023-03-06T21:38:55.618Z,8.08
2023-03-06T21:41:28.494Z,8.26
2023-03-06T21:44:03.736Z,7.94
2023-03-06T21:46:32.392Z,7.80
2023-03-06T21:49:04.126Z,8.02
2023-03-06T21:51:32.266Z,7.75
2023-03-06T21:53:59.956Z,7.97
2023-03-06T21:56:28.403Z,7.92
2023-03-06T21:58:58.052Z,7.73
2023-03-06T22:01:29.209Z,7.84
2023-03-06T22:03:58.916Z,7.64
2023-03-06T22:06:29.838Z,7.66
2023-03-06T22:09:00.068Z,7.75
2023-03-06T22:11:31.396Z,7.93
2023-03-06T22:13:59.050Z,7.94
2023-03-06T22:16:32.700Z,8.22
2023-03-06T22:19:00.148Z,7.81
2023-03-06T22:21:27.450Z,8.29
2023-03-06T22:23:58.270Z,7.87
2023-03-06T22:26:28.371Z,7.67
2023-03-06T22:28:56.231Z,7.80
2023-03-06T22:31:27.071Z,7.62
2023-03-06T22:33:58.915Z,7.57
2023-03-06T22:36:31.178Z,7.86
2023-03-06T22:39:04.278Z,7.74
2023-03-06T22:41:32.477Z,7.68
2023-03-06T22:44:02.268Z,7.80
2023-03-06T22:46:31.578Z,7.68
2023-03-06T22:49:01.151Z,7.48
2023-03-06T22:51:29.693Z,7.57
2023-03-06T22:53:58.019Z,7.57
2023-03-06T22:56:26.451Z,7.59
2023-03-06T22:58:53.719Z,7.92
2023-03-06T23:01:26.715Z,7.65
2023-03-06T23:03:58.977Z,7.72
2023-03-06T23:06:33.089Z,7.62
2023-03-06T23:09:12.600Z,7.64
2023-03-06T23:11:58.707Z,7.84
2023-03-06T23:14:51.169Z,7.55
2023-03-06T23:17:37.450Z,7.58
2023-03-06T23:20:23.530Z,7.63
2023-03-06T23:23:10.757Z,7.66
2023-03-06T23:25:44.794Z,7.70
2023-03-06T23:28:12.745Z,7.83
2023-03-06T23:30:41.417Z,7.68
2023-03-06T23:33:09.459Z,7.80
2023-03-06T23:35:41.328Z,8.12
2023-03-06T23:38:08.603Z,7.97
2023-03-06T23:40:38.682Z,7.73
2023-03-06T23:43:06.391Z,7.62
2023-03-06T23:45:33.974Z,7.73
2023-03-06T23:48:01.264Z,7.67
2023-03-06T23:50:28.582Z,7.70
2023-03-06T23:52:56.117Z,7.81
2023-03-06T23:55:23.500Z,7.52
2023-03-06T23:57:50.651Z,7.44
